Eglin, Florida
Current Conditions -  °F | °C
As of 5:11 PM on Tuesday 25 Nov 2014 (Local Time) from KVPS Reporting Station
Light Rain Light Rain  
Wind Chill: 52°   Ceiling: 5000
Heat Index: 52°   Visibility: 10mi
Dew Point: 48°   Wind: 3mph
Humidity: 88%   Direction: 20°NNE
Pressure: 30.07"   Gusts: NA
Location:  30.5697°N, 86.6042°W
Report Text: KVPS 252311Z 02003KT 10SM -RA BKN050 OVC090 11/09 A3007 RMK AO2A $
Loading
Personal Weather Stations






























Interactive Weather Map New forecast layout! Learn more

10-Day Weather Forecast

Advertisements
Track Severe Weather on mobile